Time;durP1;ratioP1;P1;durP2;ratioP2;P2;SDS_P1;SDS_P2;PMS_P1;PMS_P2;Temp;Humidity;BMP_temperature;BMP_pressure;BME280_temperature;BME280_humidity;BME280_pressure;Samples;Min_cycle;Max_cycle;Signal;HPM_P1;HPM_P2
2022/01/12 00:01:49;;;;;;;17.57;6.83;;;;;;;0.97;44.80;102003.97;5432580;32;34051;-72
2022/01/12 00:04:53;;;;;;;14.40;6.37;;;;;;;1.27;44.22;101998.66;5439969;32;34517;-72
2022/01/12 00:07:55;;;;;;;15.30;6.80;;;;;;;1.32;43.38;102007.41;5419623;32;34103;-65
2022/01/12 00:11:03;;;;;;;15.30;6.63;;;;;;;0.99;44.36;101998.81;5446705;32;33711;-70
2022/01/12 00:14:05;;;;;;;16.03;6.93;;;;;;;0.48;45.45;102012.09;5446089;32;34353;-64
2022/01/12 00:17:07;;;;;;;15.97;6.93;;;;;;;-0.03;46.33;102010.63;5424103;32;34961;-65
2022/01/12 00:20:10;;;;;;;17.37;6.90;;;;;;;-0.15;46.79;102012.84;5436047;32;35587;-71
2022/01/12 00:23:14;;;;;;;17.20;7.37;;;;;;;0.84;45.46;102000.97;5433553;32;34035;-71
2022/01/12 00:33:09;;;;;;;18.13;7.40;;;;;;;1.00;44.89;102009.19;5438305;32;34160;-71
2022/01/12 00:36:12;;;;;;;17.80;6.97;;;;;;;0.80;45.13;101997.47;5432757;32;36048;-65
2022/01/12 00:39:14;;;;;;;15.83;7.40;;;;;;;0.86;44.66;102013.16;5429831;32;34840;-65
2022/01/12 00:42:16;;;;;;;17.37;7.97;;;;;;;0.86;45.74;102015.75;5442143;32;35333;-71
2022/01/12 00:45:19;;;;;;;18.33;7.87;;;;;;;0.56;46.20;102013.19;5447472;32;34635;-64
2022/01/12 00:48:21;;;;;;;20.70;9.00;;;;;;;0.29;47.06;102036.56;5439236;32;33099;-69
2022/01/12 00:51:26;;;;;;;18.27;8.00;;;;;;;0.18;47.24;102043.13;5448948;32;34247;-71
2022/01/12 00:54:28;;;;;;;18.27;8.53;;;;;;;0.20;47.73;102037.19;5426801;32;33680;-72
2022/01/12 00:57:31;;;;;;;17.47;7.77;;;;;;;0.73;46.27;102031.78;5448681;32;34606;-64
2022/01/12 01:00:33;;;;;;;17.67;7.53;;;;;;;0.85;45.89;102033.81;5449523;32;34595;-64
2022/01/12 01:03:36;;;;;;;17.87;7.50;;;;;;;0.50;47.36;102037.19;5446406;32;35212;-70
2022/01/12 01:06:38;;;;;;;19.00;8.20;;;;;;;1.11;45.77;102026.75;5447058;32;34357;-65
2022/01/12 01:09:46;;;;;;;18.97;8.10;;;;;;;1.19;45.05;102036.44;5449183;32;33946;-65
2022/01/12 01:12:48;;;;;;;16.50;7.83;;;;;;;0.90;45.67;102030.53;5420529;32;35063;-64
2022/01/12 01:16:00;;;;;;;19.93;7.80;;;;;;;0.80;45.80;102034.56;5433249;32;35122;-64
2022/01/12 01:25:43;;;;;;;18.13;7.63;;;;;;;0.45;46.00;102038.78;5436979;32;36030;-69
2022/01/12 01:28:45;;;;;;;15.13;7.70;;;;;;;0.04;47.10;102039.25;5419091;32;35750;-64
2022/01/12 01:31:47;;;;;;;14.90;7.03;;;;;;;0.81;45.19;102038.03;5433342;32;34101;-64
2022/01/12 01:34:50;;;;;;;20.53;8.40;;;;;;;0.72;45.18;102030.91;5424089;32;35263;-63
2022/01/12 01:37:52;;;;;;;17.40;7.43;;;;;;;0.66;45.06;102042.81;5429599;32;34727;-71
2022/01/12 01:40:55;;;;;;;20.67;8.47;;;;;;;0.94;44.64;102040.09;5438052;32;35046;-70
2022/01/12 01:53:56;;;;;;;19.37;8.47;;;;;;;0.30;46.40;102053.84;5434261;32;34428;-64
2022/01/12 01:56:58;;;;;;;18.87;8.87;;;;;;;0.04;46.83;102060.81;5421224;32;34015;-64
2022/01/12 02:00:03;;;;;;;21.83;9.53;;;;;;;-0.41;48.22;102068.00;5444612;32;34386;-64
2022/01/12 02:03:06;;;;;;;19.90;9.67;;;;;;;-0.06;47.34;102063.97;5427770;32;34079;-64
2022/01/12 02:06:09;;;;;;;21.47;9.47;;;;;;;-0.17;48.28;102066.22;5429815;32;35200;-64
2022/01/12 02:09:11;;;;;;;20.90;9.15;;;;;;;-0.76;49.74;102066.84;5418724;32;33875;-64
2022/01/12 02:12:13;;;;;;;22.63;9.80;;;;;;;-0.30;48.62;102066.66;5434025;32;36142;-64
2022/01/12 02:15:22;;;;;;;22.23;9.73;;;;;;;-0.37;49.42;102078.50;5449306;32;34785;-64
2022/01/12 02:41:33;;;;;;;19.73;9.00;;;;;;;0.05;48.85;102064.28;5422973;32;34667;-65
2022/01/12 02:51:30;;;;;;;18.10;8.47;;;;;;;0.26;47.26;102058.06;5433526;32;35635;-69
2022/01/12 02:54:33;;;;;;;21.20;9.37;;;;;;;0.29;47.26;102067.59;5441225;32;33997;-63
2022/01/12 02:57:35;;;;;;;20.13;9.47;;;;;;;-0.50;49.26;102075.47;5442641;32;34384;-63
2022/01/12 03:01:04;;;;;;;19.27;9.33;;;;;;;-1.10;51.47;102069.12;5434592;32;35108;-70
2022/01/12 03:04:10;;;;;;;21.13;8.13;;;;;;;0.13;48.54;102067.97;5441216;32;35349;-63
2022/01/12 03:07:16;;;;;;;19.67;8.10;;;;;;;0.43;47.09;102066.28;5422267;32;34161;-65
2022/01/12 03:10:18;;;;;;;18.47;8.43;;;;;;;0.42;47.12;102069.72;5442777;32;34536;-66
2022/01/12 03:13:21;;;;;;;19.97;8.57;;;;;;;-0.96;50.26;102067.03;5430617;32;34084;-65
2022/01/12 03:16:25;;;;;;;22.27;9.93;;;;;;;-1.11;51.11;102075.13;5433499;32;34802;-65
2022/01/12 03:19:27;;;;;;;20.67;9.18;;;;;;;-1.91;53.67;102085.91;5433531;32;34720;-70
2022/01/12 03:22:29;;;;;;;21.23;8.60;;;;;;;-0.92;51.16;102074.06;5424447;32;35182;-65
2022/01/12 03:25:32;;;;;;;20.00;8.20;;;;;;;-0.68;50.36;102081.75;5436748;32;34803;-71
2022/01/12 03:28:34;;;;;;;22.67;9.10;;;;;;;-0.26;49.45;102086.56;5434932;32;33931;-64
2022/01/12 03:31:37;;;;;;;19.80;8.83;;;;;;;-0.99;50.93;102089.28;5425693;32;35330;-70
2022/01/12 03:34:42;;;;;;;18.50;7.87;;;;;;;-0.53;50.19;102081.37;5432338;32;34181;-70
2022/01/12 03:38:19;;;;;;;19.63;8.53;;;;;;;0.40;47.45;102088.63;5435811;32;35613;-69
2022/01/12 03:41:06;;;;;;;20.87;8.77;;;;;;;-0.38;48.91;102099.13;5422777;32;34073;-69
2022/01/12 03:44:10;;;;;;;21.83;8.73;;;;;;;-1.42;52.45;102095.47;5442692;32;34709;-63
2022/01/12 03:47:12;;;;;;;19.67;9.50;;;;;;;-1.15;52.05;102088.75;5428209;32;35209;-63
2022/01/12 03:50:15;;;;;;;25.03;10.73;;;;;;;-0.95;51.99;102091.16;5431428;32;34081;-64
2022/01/12 03:53:17;;;;;;;22.87;9.57;;;;;;;-0.87;51.15;102090.59;5413832;32;34106;-70
2022/01/12 03:56:19;;;;;;;23.50;9.83;;;;;;;-1.11;52.00;102085.44;5440886;32;34754;-64
2022/01/12 03:59:21;;;;;;;24.73;10.07;;;;;;;-1.24;52.31;102097.84;5448250;32;33997;-70
2022/01/12 04:02:24;;;;;;;25.40;10.27;;;;;;;-0.68;51.10;102092.09;5413418;32;34105;-70
2022/01/12 04:08:18;;;;;;;21.62;8.73;;;;;;;-0.91;51.46;102093.00;5432892;32;35424;-69
2022/01/12 04:08:51;;;;;;;24.02;9.75;;;;;;;-1.20;52.22;102094.56;5440040;32;34062;-70
2022/01/12 04:11:53;;;;;;;20.50;9.17;;;;;;;-1.33;52.98;102092.38;5417081;32;34201;-70
2022/01/12 04:14:55;;;;;;;31.33;9.40;;;;;;;-0.99;52.03;102091.84;5438882;32;33921;-71
2022/01/12 04:17:58;;;;;;;24.10;10.90;;;;;;;-0.64;50.83;102082.75;5418315;32;33992;-64
2022/01/12 04:21:03;;;;;;;22.33;8.83;;;;;;;-1.44;53.54;102090.25;5436140;32;34766;-63
2022/01/12 04:24:05;;;;;;;20.47;8.20;;;;;;;-0.99;52.15;102091.84;5438887;32;35810;-72
2022/01/12 04:27:07;;;;;;;20.33;9.13;;;;;;;-0.82;51.74;102081.31;5434904;32;34901;-71
2022/01/12 04:30:10;;;;;;;24.30;9.50;;;;;;;-1.75;53.84;102087.34;5438172;32;35074;-72
2022/01/12 04:33:12;;;;;;;24.80;9.93;;;;;;;-1.97;55.85;102099.41;5433995;32;34767;-63
2022/01/12 04:36:15;;;;;;;22.67;9.57;;;;;;;-1.55;53.94;102095.84;5421434;32;35508;-71
2022/01/12 04:39:17;;;;;;;21.90;10.23;;;;;;;-2.06;55.26;102100.72;5411338;32;34781;-64
2022/01/12 04:42:19;;;;;;;24.33;9.90;;;;;;;-1.94;55.00;102102.09;5420353;32;35642;-70
2022/01/12 04:51:30;;;;;;;20.07;10.17;;;;;;;-1.95;55.56;102108.06;5438952;32;33954;-64
2022/01/12 04:54:32;;;;;;;24.23;10.57;;;;;;;-1.79;55.02;102101.84;5426694;32;35808;-71
2022/01/12 04:57:34;;;;;;;24.33;10.10;;;;;;;-1.53;55.01;102107.97;5447258;32;33941;-64
2022/01/12 05:00:38;;;;;;;24.20;10.73;;;;;;;-0.92;52.75;102107.59;5407777;32;34616;-64
2022/01/12 05:13:31;;;;;;;27.10;10.97;;;;;;;-0.96;52.43;102115.22;5442373;32;33860;-72
2022/01/12 05:16:33;;;;;;;23.73;11.43;;;;;;;-1.68;55.08;102128.87;5412414;32;33871;-69
2022/01/12 05:19:35;;;;;;;21.43;10.30;;;;;;;-1.62;55.54;102132.53;5433013;32;35295;-64
2022/01/12 05:22:38;;;;;;;26.20;10.67;;;;;;;-1.56;55.53;102130.19;5440023;32;34184;-65
2022/01/12 05:25:40;;;;;;;24.13;10.50;;;;;;;-1.84;55.79;102128.25;5433046;32;35061;-64
2022/01/12 05:28:42;;;;;;;24.03;11.83;;;;;;;-2.36;57.14;102127.03;5425323;32;34400;-67
2022/01/12 05:31:45;;;;;;;27.43;10.00;;;;;;;-2.32;57.53;102126.34;5434289;32;34722;-71
2022/01/12 05:34:47;;;;;;;23.03;10.33;;;;;;;-1.72;56.02;102124.44;5423403;32;36459;-71
2022/01/12 05:37:49;;;;;;;24.43;10.57;;;;;;;-1.42;54.98;102132.47;5429413;32;35192;-70
2022/01/12 05:40:57;;;;;;;26.77;11.70;;;;;;;-0.74;52.78;102130.63;5417949;32;34891;-65
2022/01/12 05:43:59;;;;;;;24.37;10.50;;;;;;;-1.26;53.93;102126.19;5430446;32;34895;-71
2022/01/12 05:47:05;;;;;;;28.07;10.27;;;;;;;-1.35;53.91;102136.16;5447130;32;34508;-66
2022/01/12 05:50:07;;;;;;;31.30;10.60;;;;;;;-1.43;54.66;102119.50;5432535;32;35165;-64
2022/01/12 05:53:10;;;;;;;27.80;10.40;;;;;;;-1.42;54.91;102136.72;5427260;32;35221;-63
2022/01/12 05:56:12;;;;;;;25.10;9.80;;;;;;;-0.71;53.10;102137.56;5452719;32;34333;-71
2022/01/12 05:59:14;;;;;;;27.67;10.13;;;;;;;-0.69;52.70;102139.41;5444223;32;34370;-64
2022/01/12 06:02:16;;;;;;;38.87;11.43;;;;;;;-0.50;52.33;102134.87;5441392;32;34823;-64
2022/01/12 06:05:20;;;;;;;23.23;10.23;;;;;;;-1.74;54.77;102149.31;5428204;32;34147;-71
2022/01/12 06:08:23;;;;;;;25.77;10.45;;;;;;;-1.70;56.39;102161.47;5433107;32;35149;-70
2022/01/12 06:11:25;;;;;;;27.50;10.93;;;;;;;-1.76;55.01;102162.94;5431047;32;34436;-70
2022/01/12 06:14:27;;;;;;;24.77;10.43;;;;;;;-2.08;57.42;102174.53;5415409;32;33935;-71
2022/01/12 06:17:29;;;;;;;25.13;10.60;;;;;;;-1.67;56.36;102178.78;5419862;32;33976;-69
2022/01/12 06:20:31;;;;;;;26.27;11.53;;;;;;;-0.83;53.40;102172.50;5433807;32;34639;-70
2022/01/12 06:23:33;;;;;;;27.00;11.23;;;;;;;-1.38;54.81;102183.34;5433192;32;33946;-70
2022/01/12 06:26:36;;;;;;;24.63;10.73;;;;;;;-2.40;57.43;102192.09;5443756;32;34457;-72
2022/01/12 06:29:49;;;;;;;24.00;10.47;;;;;;;-1.72;56.99;102186.31;5425509;32;35197;-72
2022/01/12 06:32:58;;;;;;;26.70;11.80;;;;;;;-1.36;54.79;102183.41;5423826;32;35474;-65
2022/01/12 06:36:00;;;;;;;25.07;10.90;;;;;;;-1.69;55.83;102185.56;5414048;32;36389;-64
2022/01/12 06:39:05;;;;;;;26.93;11.07;;;;;;;-2.42;57.29;102198.88;5410103;32;34944;-64
2022/01/12 06:42:07;;;;;;;26.87;11.97;;;;;;;-2.08;57.59;102184.84;5426348;32;35252;-64
2022/01/12 06:45:10;;;;;;;28.33;10.40;;;;;;;-1.82;57.27;102191.91;5412504;32;36825;-64
2022/01/12 06:48:12;;;;;;;29.73;12.30;;;;;;;-1.85;56.92;102186.66;5427039;32;34832;-66
2022/01/12 06:51:15;;;;;;;29.43;11.33;;;;;;;-2.12;57.49;102201.00;5421143;32;33596;-75
2022/01/12 06:54:17;;;;;;;24.43;10.47;;;;;;;-2.43;58.50;102210.00;5415680;32;34085;-63
2022/01/12 06:57:19;;;;;;;28.27;12.10;;;;;;;-1.41;55.75;102203.00;5398536;32;33802;-69
2022/01/12 07:00:22;;;;;;;29.20;11.67;;;;;;;-1.64;56.35;102207.25;5411442;32;34184;-66
2022/01/12 07:03:24;;;;;;;23.97;10.37;;;;;;;-1.50;55.94;102212.94;5419957;32;35707;-67
2022/01/12 07:06:28;;;;;;;23.87;10.17;;;;;;;-2.01;57.05;102210.03;5427619;32;33966;-73
2022/01/12 07:09:34;;;;;;;32.10;12.57;;;;;;;-2.26;58.33;102211.56;5390079;32;34871;-67
2022/01/12 07:12:36;;;;;;;29.47;12.40;;;;;;;-2.48;59.34;102212.38;5417558;32;34089;-68
2022/01/12 07:15:41;;;;;;;28.37;11.53;;;;;;;-2.07;59.03;102218.38;5437232;32;33984;-66
2022/01/12 07:18:43;;;;;;;;;;;;;;;-2.23;59.33;102218.56;5431031;32;34887;-71
2022/01/12 07:21:45;;;;;;;32.17;12.73;;;;;;;-2.52;60.09;102225.91;5417591;32;35399;-69
2022/01/12 07:24:47;;;;;;;28.13;12.57;;;;;;;-2.00;58.88;102230.69;5434691;32;36608;-65
2022/01/12 07:27:55;;;;;;;25.80;12.13;;;;;;;-2.31;59.38;102235.41;5434804;32;34206;-68
2022/01/12 07:30:57;;;;;;;29.53;13.73;;;;;;;-1.31;55.96;102235.16;5415662;32;33921;-68
2022/01/12 07:34:00;;;;;;;27.53;13.17;;;;;;;-1.51;56.75;102235.28;5424872;32;35256;-74
2022/01/12 07:37:03;;;;;;;30.77;14.50;;;;;;;-2.54;59.82;102252.44;5395666;32;34036;-72
2022/01/12 07:40:07;;;;;;;32.20;12.98;;;;;;;-1.93;58.92;102257.63;5423266;32;33839;-71
2022/01/12 07:43:10;;;;;;;32.70;14.45;;;;;;;-1.19;56.64;102246.84;5434454;32;33940;-69
2022/01/12 07:46:12;;;;;;;42.03;14.87;;;;;;;-2.49;59.70;102262.12;5424359;32;34198;-71
2022/01/12 07:49:15;;;;;;;32.93;14.77;;;;;;;-2.36;59.13;102266.09;5435330;32;35083;-71
2022/01/12 07:52:18;;;;;;;34.70;13.77;;;;;;;-1.43;56.97;102261.34;5439048;32;34120;-74
2022/01/12 07:55:21;;;;;;;33.20;13.83;;;;;;;-1.71;57.17;102265.41;5417551;32;35099;-72
2022/01/12 07:58:24;;;;;;;34.40;13.80;;;;;;;-0.71;55.13;102267.59;5408404;32;34257;-66
2022/01/12 08:01:26;;;;;;;31.10;12.60;;;;;;;-0.95;55.05;102262.38;5421199;32;35301;-67
2022/01/12 08:04:29;;;;;;;25.00;11.98;;;;;;;-1.00;54.56;102268.19;5435164;32;34048;-65
2022/01/12 08:07:36;;;;;;;30.80;12.60;;;;;;;-0.76;53.58;102258.78;5433031;32;36855;-80
2022/01/12 08:10:38;;;;;;;25.60;11.73;;;;;;;0.16;51.77;102256.84;5404029;32;34097;-77
2022/01/12 08:13:42;;;;;;;27.30;11.63;;;;;;;0.25;50.83;102263.19;5412786;32;36021;-80
2022/01/12 08:16:44;;;;;;;35.93;11.83;;;;;;;-0.21;51.47;102259.88;5431415;32;34291;-77
2022/01/12 08:19:47;;;;;;;33.80;13.27;;;;;;;-1.18;54.83;102264.06;5418298;32;34148;-72
2022/01/12 08:22:49;;;;;;;29.47;12.17;;;;;;;-0.92;54.33;102259.03;5443650;32;34757;-68
2022/01/12 08:25:51;;;;;;;26.97;12.27;;;;;;;0.12;51.48;102268.78;5440378;32;34086;-64
2022/01/12 08:28:54;;;;;;;37.57;13.00;;;;;;;-0.17;51.13;102270.37;5434781;32;33967;-66
2022/01/12 08:31:56;;;;;;;27.40;12.77;;;;;;;-0.56;52.74;102281.06;5433181;32;35344;-65
2022/01/12 08:34:59;;;;;;;27.90;12.40;;;;;;;-0.13;51.35;102294.59;5439179;32;34017;-68
2022/01/12 08:38:01;;;;;;;33.10;13.67;;;;;;;0.33;50.28;102294.50;5408650;32;33922;-68
2022/01/12 08:41:03;;;;;;;33.00;13.07;;;;;;;0.44;49.92;102294.81;5415544;32;35011;-70
2022/01/12 08:44:07;;;;;;;35.07;13.43;;;;;;;0.13;50.94;102304.16;5432150;32;35341;-72
2022/01/12 08:47:10;;;;;;;31.95;13.05;;;;;;;-0.22;52.13;102307.22;5434574;32;34885;-74
2022/01/12 08:50:13;;;;;;;35.03;13.10;;;;;;;-0.74;53.73;102306.19;5410444;32;34002;-67
2022/01/12 08:53:16;;;;;;;27.33;12.87;;;;;;;-0.65;53.74;102303.06;5417630;32;35092;-63
2022/01/12 08:56:19;;;;;;;25.85;11.82;;;;;;;-0.14;51.94;102292.84;5437016;32;34011;-73
2022/01/12 08:59:22;;;;;;;34.07;12.30;;;;;;;-0.16;51.94;102295.38;5388778;32;190767;-71
2022/01/12 09:02:25;;;;;;;26.65;12.27;;;;;;;-0.52;52.20;102301.81;5405169;32;33854;-61
2022/01/12 09:05:29;;;;;;;27.00;12.00;;;;;;;-1.01;53.25;102300.87;5435190;32;35362;-72
2022/01/12 09:08:37;;;;;;;25.50;12.07;;;;;;;0.13;50.78;102293.81;5416738;32;34122;-73
2022/01/12 09:11:39;;;;;;;28.57;11.20;;;;;;;-0.46;51.76;102297.75;5431336;32;34022;-70
2022/01/12 09:14:41;;;;;;;27.03;11.67;;;;;;;-0.26;51.59;102288.13;5435930;32;34049;-72
2022/01/12 09:17:46;;;;;;;24.33;12.00;;;;;;;0.38;49.44;102285.16;5429148;32;34504;-68
2022/01/12 09:20:49;;;;;;;28.57;11.80;;;;;;;1.07;47.57;102283.00;5425502;32;35314;-72
2022/01/12 09:23:51;;;;;;;23.07;11.13;;;;;;;1.76;45.25;102274.63;5434603;32;34169;-74
2022/01/12 09:26:54;;;;;;;30.40;13.03;;;;;;;1.90;44.83;102270.69;5436746;32;34029;-67
2022/01/12 09:29:57;;;;;;;28.03;12.60;;;;;;;1.74;44.97;102272.81;5428551;32;33996;-71
2022/01/12 09:32:59;;;;;;;27.77;11.07;;;;;;;1.79;44.56;102269.50;5412615;32;34907;-68
2022/01/12 09:36:02;;;;;;;24.27;10.83;;;;;;;0.67;47.46;102283.50;5432639;32;33524;-66
2022/01/12 09:39:06;;;;;;;25.67;10.80;;;;;;;1.15;45.37;102274.59;5407146;32;35231;-64
2022/01/12 09:42:08;;;;;;;;;;;;;;;1.38;44.94;102276.16;5428141;32;34782;-65
2022/01/12 09:45:15;;;;;;;21.57;9.10;;;;;;;0.07;48.12;102287.56;5419298;32;34155;-67
2022/01/12 09:48:20;;;;;;;29.40;12.13;;;;;;;1.18;46.07;102285.06;5435770;32;33910;-68
2022/01/12 09:51:23;;;;;;;26.60;10.87;;;;;;;0.65;47.74;102287.78;5404299;32;34980;-63
2022/01/12 09:54:27;;;;;;;21.40;9.53;;;;;;;1.28;45.77;102290.53;5422135;32;34555;-71
2022/01/12 09:57:29;;;;;;;38.55;17.92;;;;;;;1.47;44.94;102289.34;5417442;32;33934;-72
2022/01/12 10:00:33;;;;;;;27.70;11.80;;;;;;;1.79;43.72;102279.00;5418075;32;34152;-67
2022/01/12 10:03:38;;;;;;;25.40;11.50;;;;;;;1.14;46.02;102289.25;5421377;32;34674;-68
2022/01/12 10:06:43;;;;;;;33.07;13.27;;;;;;;1.22;46.29;102286.88;5431561;32;34016;-61
2022/01/12 10:09:48;;;;;;;32.10;13.47;;;;;;;1.11;46.39;102286.59;5420952;32;34777;-64
2022/01/12 10:12:54;;;;;;;23.10;10.13;;;;;;;1.04;46.69;102285.53;5432617;32;34377;-69
2022/01/12 10:15:57;;;;;;;26.33;11.30;;;;;;;0.87;45.45;102285.84;5433965;32;34580;-72
2022/01/12 10:19:00;;;;;;;25.27;11.00;;;;;;;0.98;45.12;102282.75;5417442;32;34053;-72
2022/01/12 10:22:06;;;;;;;29.08;12.25;;;;;;;1.79;43.77;102282.47;5429273;32;34087;-71
2022/01/12 10:25:19;;;;;;;28.70;11.80;;;;;;;1.58;44.31;102282.75;5421628;32;34162;-70
2022/01/12 10:28:23;;;;;;;26.27;11.50;;;;;;;2.39;42.44;102273.66;5425126;32;34253;-71
2022/01/12 10:31:25;;;;;;;;;;;;;;;1.32;44.13;102282.03;5434632;32;34578;-69
2022/01/12 10:34:29;;;;;;;24.13;9.90;;;;;;;1.02;43.51;102284.59;5423365;32;35532;-74
2022/01/12 10:37:31;;;;;;;26.77;11.37;;;;;;;0.82;43.69;102290.87;5432450;32;32859;-69
2022/01/12 10:40:47;;;;;;;26.37;11.40;;;;;;;0.93;44.12;102283.44;5422624;32;35160;-71
2022/01/12 10:43:50;;;;;;;23.37;10.87;;;;;;;0.13;45.84;102288.66;5429447;32;34061;-77
2022/01/12 10:47:22;;;;;;;23.53;10.20;;;;;;;1.38;43.94;102275.28;5423318;32;34038;-64
2022/01/12 10:50:28;;;;;;;28.63;10.83;;;;;;;1.32;43.02;102281.16;5413420;32;33574;-65
2022/01/12 10:53:33;;;;;;;24.43;10.60;;;;;;;0.81;44.44;102286.53;5414207;32;35759;-67
2022/01/12 10:56:40;;;;;;;28.63;12.00;;;;;;;1.05;43.70;102282.09;5416772;32;35251;-65
2022/01/12 10:59:46;;;;;;;32.22;12.13;;;;;;;1.66;42.51;102279.50;5415899;32;33758;-74
2022/01/12 11:03:00;;;;;;;22.93;10.73;;;;;;;2.13;41.33;102260.91;5414124;32;33404;-76
2022/01/12 11:06:03;;;;;;;27.33;11.07;;;;;;;2.16;41.42;102255.78;5435651;32;34939;-66
2022/01/12 11:09:06;;;;;;;27.23;11.53;;;;;;;1.46;42.59;102266.88;5407914;32;32621;-67
2022/01/12 11:12:09;;;;;;;22.47;10.57;;;;;;;2.63;40.42;102256.03;5435435;32;35412;-64
2022/01/12 11:15:20;;;;;;;26.10;11.23;;;;;;;3.53;38.17;102250.19;5415116;32;35345;-62
2022/01/12 11:18:25;;;;;;;33.77;15.40;;;;;;;3.33;38.34;102267.09;5438031;32;33827;-66
2022/01/12 11:21:39;;;;;;;22.90;10.30;;;;;;;2.61;38.98;102265.53;5431640;32;34012;-66
2022/01/12 11:24:41;;;;;;;30.10;11.43;;;;;;;2.53;39.27;102269.66;5421828;32;34131;-62
2022/01/12 11:27:44;;;;;;;30.47;10.40;;;;;;;1.98;40.49;102268.28;5435673;32;35246;-64
2022/01/12 11:30:50;;;;;;;24.58;10.68;;;;;;;2.51;39.68;102255.75;5432612;32;33980;-66
2022/01/12 11:33:53;;;;;;;23.00;10.63;;;;;;;1.57;40.74;102260.28;5422077;32;34706;-66
2022/01/12 11:36:55;;;;;;;24.53;10.30;;;;;;;2.45;39.52;102260.81;5400400;32;34576;-73
2022/01/12 11:40:08;;;;;;;21.90;9.70;;;;;;;2.45;38.95;102258.22;5420569;32;35674;-63
2022/01/12 11:43:19;;;;;;;28.90;11.53;;;;;;;3.23;37.40;102247.84;5426477;32;35226;-65
2022/01/12 11:46:24;;;;;;;24.47;10.23;;;;;;;3.36;37.10;102250.72;5414484;32;34462;-72
2022/01/12 11:49:34;;;;;;;28.80;10.93;;;;;;;2.64;38.19;102243.94;5435159;32;35364;-66
2022/01/12 11:52:37;;;;;;;24.60;10.53;;;;;;;2.19;39.76;102252.41;5417464;32;35205;-74
2022/01/12 11:55:40;;;;;;;26.77;10.77;;;;;;;2.59;39.42;102242.97;5432395;32;33994;-66
2022/01/12 11:58:53;;;;;;;27.57;10.30;;;;;;;2.90;38.67;102244.56;5427726;32;35515;-66
2022/01/12 12:02:12;;;;;;;25.67;10.77;;;;;;;3.52;37.38;102232.81;5427295;32;34251;-72
2022/01/12 12:05:14;;;;;;;23.13;10.30;;;;;;;3.63;36.52;102229.56;5414173;32;34528;-70
2022/01/12 12:08:25;;;;;;;23.37;11.00;;;;;;;4.22;35.89;102230.59;5417243;32;35623;-66
2022/01/12 12:11:28;;;;;;;25.83;10.77;;;;;;;5.92;33.11;102211.94;5424384;32;34229;-65
2022/01/12 12:14:31;;;;;;;;;;;;;;;6.17;31.66;102215.63;5430069;32;34027;-78
2022/01/12 12:17:35;;;;;;;25.33;10.17;;;;;;;5.79;32.54;102210.03;5442437;32;34093;-69
2022/01/12 12:20:37;;;;;;;24.13;10.27;;;;;;;6.79;31.22;102212.59;5434057;32;34716;-74
2022/01/12 12:23:40;;;;;;;23.30;10.47;;;;;;;7.68;28.35;102202.47;5435024;32;33932;-81
2022/01/12 12:26:54;;;;;;;20.27;9.73;;;;;;;9.04;26.55;102204.97;5420585;32;35086;-72
2022/01/12 12:29:57;;;;;;;21.00;9.57;;;;;;;9.54;25.73;102199.47;5425632;32;34421;-67
2022/01/12 12:33:14;;;;;;;24.17;10.80;;;;;;;9.83;25.14;102204.53;5424182;32;34458;-77
2022/01/12 12:36:23;;;;;;;23.90;11.33;;;;;;;8.35;27.20;102215.56;5432780;32;35901;-67
2022/01/12 12:39:33;;;;;;;22.70;10.90;;;;;;;8.54;27.15;102225.19;5422208;32;34127;-74
2022/01/12 12:42:38;;;;;;;24.50;11.07;;;;;;;7.82;28.50;102226.91;5418847;32;34029;-71
2022/01/12 12:45:59;;;;;;;22.67;11.33;;;;;;;8.47;27.33;102228.69;5419918;32;32714;-74
2022/01/12 12:49:07;;;;;;;26.30;11.93;;;;;;;5.79;31.55;102223.97;5426925;32;33241;-78
2022/01/12 12:52:12;;;;;;;27.63;12.33;;;;;;;5.15;33.00;102234.56;5435709;32;36044;-75
2022/01/12 12:55:16;;;;;;;25.33;11.17;;;;;;;4.42;34.38;102232.66;5419140;32;34189;-76
2022/01/12 12:58:18;;;;;;;27.03;11.30;;;;;;;4.54;35.23;102228.50;5442000;32;34764;-74
2022/01/12 13:01:24;;;;;;;27.53;12.10;;;;;;;3.64;36.60;102228.72;5428813;32;35630;-72
2022/01/12 13:04:26;;;;;;;28.20;11.30;;;;;;;5.21;34.39;102215.50;5441979;32;36367;-70
2022/01/12 13:07:36;;;;;;;31.70;12.13;;;;;;;4.93;34.07;102227.31;5418335;32;35138;-74
2022/01/12 13:10:39;;;;;;;27.70;11.77;;;;;;;4.39;35.46;102223.06;5425469;32;34903;-70
2022/01/12 13:13:42;;;;;;;26.90;11.80;;;;;;;2.83;38.60;102224.44;5438010;32;34185;-71
2022/01/12 13:16:50;;;;;;;25.00;12.30;;;;;;;4.25;35.82;102227.16;5415499;32;34561;-73
2022/01/12 13:23:04;;;;;;;30.73;12.83;;;;;;;4.03;36.71;102212.94;5433326;32;34153;-73
2022/01/12 13:26:09;;;;;;;27.70;12.50;;;;;;;4.25;36.69;102220.25;5438625;32;34277;-68
2022/01/12 13:29:12;;;;;;;28.70;13.23;;;;;;;3.42;37.97;102222.25;5431530;32;34109;-70
2022/01/12 13:32:19;;;;;;;27.47;11.83;;;;;;;3.37;38.28;102219.53;5436634;32;33643;-75
2022/01/12 13:35:35;;;;;;;34.73;14.90;;;;;;;3.58;37.67;102226.87;5438868;32;34156;-71
2022/01/12 13:38:38;;;;;;;39.23;13.97;;;;;;;3.40;38.54;102223.91;5431058;32;34034;-71
2022/01/12 13:41:43;;;;;;;28.27;13.50;;;;;;;3.09;39.31;102225.91;5440968;32;34100;-71
2022/01/12 13:44:46;;;;;;;30.13;13.27;;;;;;;2.98;39.51;102220.50;5421905;32;35644;-72
2022/01/12 13:48:00;;;;;;;25.10;10.57;;;;;;;2.53;40.51;102232.44;5409323;32;34758;-70
2022/01/12 13:51:03;;;;;;;31.67;11.97;;;;;;;3.95;37.51;102220.63;5419017;32;33908;-77
2022/01/12 13:54:11;;;;;;;30.27;12.82;;;;;;;3.96;37.81;102224.97;5435858;32;33965;-68
2022/01/12 13:57:17;;;;;;;34.13;12.70;;;;;;;2.36;40.95;102237.22;5418932;32;34050;-72
2022/01/12 14:00:20;;;;;;;27.40;12.23;;;;;;;2.14;41.85;102231.53;5437888;32;34262;-73
2022/01/12 14:03:24;;;;;;;26.47;12.47;;;;;;;2.36;41.50;102239.81;5421140;32;35469;-78
2022/01/12 14:06:28;;;;;;;;;;;;;;;2.52;40.69;102243.69;5435967;32;34502;-75
2022/01/12 14:09:38;;;;;;;26.62;11.77;;;;;;;4.64;36.28;102229.53;5444325;32;35977;-74
2022/01/12 14:12:49;;;;;;;25.50;11.40;;;;;;;4.78;35.35;102227.13;5408949;32;34091;-77
2022/01/12 14:15:52;;;;;;;28.57;11.43;;;;;;;3.40;38.62;102245.59;5416731;32;33373;-71
2022/01/12 14:19:00;;;;;;;30.57;10.57;;;;;;;3.35;38.51;102246.34;5442738;32;33723;-78
2022/01/12 14:22:05;;;;;;;25.77;10.97;;;;;;;1.99;41.18;102249.28;5444446;32;34090;-74
2022/01/12 14:25:12;;;;;;;29.90;11.73;;;;;;;1.92;42.14;102251.69;5443261;32;34149;-77
2022/01/12 14:28:18;;;;;;;27.27;12.03;;;;;;;1.98;42.04;102246.66;5416552;32;34489;-73
2022/01/12 14:31:21;;;;;;;25.53;10.47;;;;;;;1.53;42.70;102247.19;5427044;32;34824;-69
2022/01/12 14:34:24;;;;;;;25.33;10.20;;;;;;;2.33;41.70;102234.59;5443870;32;33953;-78
2022/01/12 14:37:27;;;;;;;27.45;11.48;;;;;;;1.84;42.38;102247.19;5431870;32;34879;-71
2022/01/12 14:40:30;;;;;;;26.70;11.30;;;;;;;1.38;43.46;102252.84;5425507;32;34136;-72
2022/01/12 14:43:33;;;;;;;21.08;9.88;;;;;;;1.88;42.08;102250.75;5429171;32;33934;-73
2022/01/12 14:46:35;;;;;;;24.80;10.37;;;;;;;1.83;42.65;102237.66;5419607;32;34208;-67
2022/01/12 14:49:38;;;;;;;26.23;11.33;;;;;;;2.41;41.40;102248.59;5440454;32;32636;-73
2022/01/12 14:52:40;;;;;;;22.60;10.03;;;;;;;2.21;41.44;102253.31;5439228;32;34175;-75
2022/01/12 14:55:43;;;;;;;23.27;10.13;;;;;;;1.78;42.17;102256.50;5444807;32;33887;-74
2022/01/12 14:58:47;;;;;;;22.58;11.48;;;;;;;1.81;42.30;102254.88;5425924;32;33925;-68
2022/01/12 15:01:49;;;;;;;25.75;10.40;;;;;;;2.53;41.06;102251.50;5426679;32;33902;-68
2022/01/12 15:04:53;;;;;;;19.90;9.90;;;;;;;1.60;43.11;102247.37;5420589;32;34428;-66
2022/01/12 15:07:56;;;;;;;22.75;10.43;;;;;;;1.78;42.63;102244.41;5440662;32;33856;-73
2022/01/12 15:11:00;;;;;;;21.45;10.18;;;;;;;2.23;42.11;102236.06;5440899;32;34325;-71
2022/01/12 15:14:21;;;;;;;20.83;9.40;;;;;;;1.63;44.04;102252.69;5434611;32;36605;-75
2022/01/12 15:17:24;;;;;;;25.03;9.47;;;;;;;1.78;44.23;102251.31;5441955;32;35395;-66
2022/01/12 15:20:28;;;;;;;24.10;10.02;;;;;;;0.87;47.09;102266.00;5428637;32;35663;-72